sensor_id;sensor_type;location;lat;lon;timestamp;temperature;humidity
9103;DHT22;4587;51.434;6.788;2022-07-12T00:01:07;16.70;99.90
9103;DHT22;4587;51.434;6.788;2022-07-12T00:03:34;16.70;99.90
9103;DHT22;4587;51.434;6.788;2022-07-12T00:06:00;16.70;99.90
9103;DHT22;4587;51.434;6.788;2022-07-12T00:08:26;16.60;99.90
9103;DHT22;4587;51.434;6.788;2022-07-12T00:10:51;16.70;99.90
9103;DHT22;4587;51.434;6.788;2022-07-12T00:13:17;16.60;99.90
9103;DHT22;4587;51.434;6.788;2022-07-12T00:15:43;16.60;99.90
9103;DHT22;4587;51.434;6.788;2022-07-12T00:18:10;16.60;99.90
9103;DHT22;4587;51.434;6.788;2022-07-12T00:20:36;16.50;99.90
9103;DHT22;4587;51.434;6.788;2022-07-12T00:23:02;16.50;99.90
9103;DHT22;4587;51.434;6.788;2022-07-12T00:25:27;16.50;99.90
9103;DHT22;4587;51.434;6.788;2022-07-12T00:27:53;16.40;99.90
9103;DHT22;4587;51.434;6.788;2022-07-12T00:30:19;16.40;99.90
9103;DHT22;4587;51.434;6.788;2022-07-12T00:32:44;16.40;99.90
9103;DHT22;4587;51.434;6.788;2022-07-12T00:35:11;16.40;99.90
9103;DHT22;4587;51.434;6.788;2022-07-12T00:37:36;16.30;99.90
9103;DHT22;4587;51.434;6.788;2022-07-12T00:40:07;16.30;99.90
9103;DHT22;4587;51.434;6.788;2022-07-12T00:42:37;16.30;99.90
9103;DHT22;4587;51.434;6.788;2022-07-12T00:45:05;16.30;99.90
9103;DHT22;4587;51.434;6.788;2022-07-12T00:47:35;16.20;99.90
9103;DHT22;4587;51.434;6.788;2022-07-12T00:50:05;16.20;99.90
9103;DHT22;4587;51.434;6.788;2022-07-12T00:52:31;16.20;99.90
9103;DHT22;4587;51.434;6.788;2022-07-12T00:54:56;16.10;99.90
9103;DHT22;4587;51.434;6.788;2022-07-12T00:57:22;16.10;99.90
9103;DHT22;4587;51.434;6.788;2022-07-12T00:59:48;16.10;99.90
9103;DHT22;4587;51.434;6.788;2022-07-12T01:02:14;16.10;99.90
9103;DHT22;4587;51.434;6.788;2022-07-12T01:04:39;16.10;99.90
9103;DHT22;4587;51.434;6.788;2022-07-12T01:07:05;16.10;99.90
9103;DHT22;4587;51.434;6.788;2022-07-12T01:09:31;16.10;99.90
9103;DHT22;4587;51.434;6.788;2022-07-12T01:11:57;16.00;99.90
9103;DHT22;4587;51.434;6.788;2022-07-12T01:14:23;16.00;99.90
9103;DHT22;4587;51.434;6.788;2022-07-12T01:16:49;16.00;99.90
9103;DHT22;4587;51.434;6.788;2022-07-12T01:19:20;16.00;99.90
9103;DHT22;4587;51.434;6.788;2022-07-12T01:21:47;15.90;99.90
9103;DHT22;4587;51.434;6.788;2022-07-12T01:24:14;16.00;99.90
9103;DHT22;4587;51.434;6.788;2022-07-12T01:26:40;16.00;99.90
9103;DHT22;4587;51.434;6.788;2022-07-12T01:29:07;15.90;99.90
9103;DHT22;4587;51.434;6.788;2022-07-12T01:31:36;15.90;99.90
9103;DHT22;4587;51.434;6.788;2022-07-12T01:34:03;15.90;99.90
9103;DHT22;4587;51.434;6.788;2022-07-12T01:36:29;15.80;99.90
9103;DHT22;4587;51.434;6.788;2022-07-12T01:38:55;15.80;99.90
9103;DHT22;4587;51.434;6.788;2022-07-12T01:41:22;15.80;99.90
9103;DHT22;4587;51.434;6.788;2022-07-12T01:43:52;15.80;99.90
9103;DHT22;4587;51.434;6.788;2022-07-12T01:46:18;15.80;99.90
9103;DHT22;4587;51.434;6.788;2022-07-12T01:48:44;15.80;99.90
9103;DHT22;4587;51.434;6.788;2022-07-12T01:51:10;15.80;99.90
9103;DHT22;4587;51.434;6.788;2022-07-12T01:53:36;15.70;99.90
9103;DHT22;4587;51.434;6.788;2022-07-12T01:56:05;15.80;99.90
9103;DHT22;4587;51.434;6.788;2022-07-12T01:58:30;15.80;99.90
9103;DHT22;4587;51.434;6.788;2022-07-12T02:00:57;15.70;99.90
9103;DHT22;4587;51.434;6.788;2022-07-12T02:03:23;15.70;99.90
9103;DHT22;4587;51.434;6.788;2022-07-12T02:05:49;15.70;99.90
9103;DHT22;4587;51.434;6.788;2022-07-12T02:08:15;15.60;99.90
9103;DHT22;4587;51.434;6.788;2022-07-12T02:10:41;15.60;99.90
9103;DHT22;4587;51.434;6.788;2022-07-12T02:13:07;15.60;99.90
9103;DHT22;4587;51.434;6.788;2022-07-12T02:15:33;15.50;99.90
9103;DHT22;4587;51.434;6.788;2022-07-12T02:17:58;15.60;99.90
9103;DHT22;4587;51.434;6.788;2022-07-12T02:20:24;15.50;99.90
9103;DHT22;4587;51.434;6.788;2022-07-12T02:22:50;15.50;99.90
9103;DHT22;4587;51.434;6.788;2022-07-12T02:25:16;15.50;99.90
9103;DHT22;4587;51.434;6.788;2022-07-12T02:27:41;15.50;99.90
9103;DHT22;4587;51.434;6.788;2022-07-12T02:30:11;15.50;99.90
9103;DHT22;4587;51.434;6.788;2022-07-12T02:32:37;15.50;99.90
9103;DHT22;4587;51.434;6.788;2022-07-12T02:35:06;15.50;99.90
9103;DHT22;4587;51.434;6.788;2022-07-12T02:37:32;15.50;99.90
9103;DHT22;4587;51.434;6.788;2022-07-12T02:39:58;15.50;99.90
9103;DHT22;4587;51.434;6.788;2022-07-12T02:42:42;15.50;99.90
9103;DHT22;4587;51.434;6.788;2022-07-12T02:45:09;15.40;99.90
9103;DHT22;4587;51.434;6.788;2022-07-12T02:47:39;15.40;99.90
9103;DHT22;4587;51.434;6.788;2022-07-12T02:50:06;15.40;99.90
9103;DHT22;4587;51.434;6.788;2022-07-12T02:52:32;15.40;99.90
9103;DHT22;4587;51.434;6.788;2022-07-12T02:54:58;15.40;99.90
9103;DHT22;4587;51.434;6.788;2022-07-12T02:57:23;15.40;99.90
9103;DHT22;4587;51.434;6.788;2022-07-12T02:59:49;15.30;99.90
9103;DHT22;4587;51.434;6.788;2022-07-12T03:02:15;15.40;99.90
9103;DHT22;4587;51.434;6.788;2022-07-12T03:04:41;15.30;99.90
9103;DHT22;4587;51.434;6.788;2022-07-12T03:07:06;15.30;99.90
9103;DHT22;4587;51.434;6.788;2022-07-12T03:09:32;15.30;99.90
9103;DHT22;4587;51.434;6.788;2022-07-12T03:11:57;15.30;99.90
9103;DHT22;4587;51.434;6.788;2022-07-12T03:14:23;15.30;99.90
9103;DHT22;4587;51.434;6.788;2022-07-12T03:16:48;15.20;99.90
9103;DHT22;4587;51.434;6.788;2022-07-12T03:19:15;15.20;99.90
9103;DHT22;4587;51.434;6.788;2022-07-12T03:21:40;15.20;99.90
9103;DHT22;4587;51.434;6.788;2022-07-12T03:24:06;15.20;99.90
9103;DHT22;4587;51.434;6.788;2022-07-12T03:26:32;15.20;99.90
9103;DHT22;4587;51.434;6.788;2022-07-12T03:28:57;15.20;99.90
9103;DHT22;4587;51.434;6.788;2022-07-12T03:31:26;15.10;99.90
9103;DHT22;4587;51.434;6.788;2022-07-12T03:33:52;15.20;99.90
9103;DHT22;4587;51.434;6.788;2022-07-12T03:36:17;15.10;99.90
9103;DHT22;4587;51.434;6.788;2022-07-12T03:38:43;15.10;99.90
9103;DHT22;4587;51.434;6.788;2022-07-12T03:41:09;15.10;99.90
9103;DHT22;4587;51.434;6.788;2022-07-12T03:43:34;15.10;99.90
9103;DHT22;4587;51.434;6.788;2022-07-12T03:46:00;15.10;99.90
9103;DHT22;4587;51.434;6.788;2022-07-12T03:48:26;15.10;99.90
9103;DHT22;4587;51.434;6.788;2022-07-12T03:50:51;15.10;99.90
9103;DHT22;4587;51.434;6.788;2022-07-12T03:53:17;15.20;99.90
9103;DHT22;4587;51.434;6.788;2022-07-12T03:55:42;15.10;99.90
9103;DHT22;4587;51.434;6.788;2022-07-12T03:58:08;15.10;99.90
9103;DHT22;4587;51.434;6.788;2022-07-12T04:00:34;15.20;99.90
9103;DHT22;4587;51.434;6.788;2022-07-12T04:03:00;15.10;99.90
9103;DHT22;4587;51.434;6.788;2022-07-12T04:05:26;15.10;99.90
9103;DHT22;4587;51.434;6.788;2022-07-12T04:07:52;15.20;99.90
9103;DHT22;4587;51.434;6.788;2022-07-12T04:10:19;15.20;99.90
9103;DHT22;4587;51.434;6.788;2022-07-12T04:12:45;15.20;99.90
9103;DHT22;4587;51.434;6.788;2022-07-12T04:15:11;15.30;99.90
9103;DHT22;4587;51.434;6.788;2022-07-12T04:17:37;15.30;99.90
9103;DHT22;4587;51.434;6.788;2022-07-12T04:20:03;15.30;99.90
9103;DHT22;4587;51.434;6.788;2022-07-12T04:22:29;15.30;99.90
9103;DHT22;4587;51.434;6.788;2022-07-12T04:24:54;15.40;99.90
9103;DHT22;4587;51.434;6.788;2022-07-12T04:27:20;15.40;99.90
9103;DHT22;4587;51.434;6.788;2022-07-12T04:29:46;15.40;99.90
9103;DHT22;4587;51.434;6.788;2022-07-12T04:32:11;15.40;99.90
9103;DHT22;4587;51.434;6.788;2022-07-12T04:34:37;15.50;99.90
9103;DHT22;4587;51.434;6.788;2022-07-12T04:37:03;15.50;99.90
9103;DHT22;4587;51.434;6.788;2022-07-12T04:39:28;15.60;99.90
9103;DHT22;4587;51.434;6.788;2022-07-12T04:41:54;15.60;99.90
9103;DHT22;4587;51.434;6.788;2022-07-12T04:44:20;15.70;99.90
9103;DHT22;4587;51.434;6.788;2022-07-12T04:46:45;15.70;99.90
9103;DHT22;4587;51.434;6.788;2022-07-12T04:49:11;15.80;99.90
9103;DHT22;4587;51.434;6.788;2022-07-12T04:51:37;15.80;99.90
9103;DHT22;4587;51.434;6.788;2022-07-12T04:54:02;15.90;99.90
9103;DHT22;4587;51.434;6.788;2022-07-12T04:56:28;16.00;99.90
9103;DHT22;4587;51.434;6.788;2022-07-12T04:58:54;16.10;99.90
9103;DHT22;4587;51.434;6.788;2022-07-12T05:01:20;16.20;99.90
9103;DHT22;4587;51.434;6.788;2022-07-12T05:03:46;16.10;99.90
9103;DHT22;4587;51.434;6.788;2022-07-12T05:06:12;16.30;99.90
9103;DHT22;4587;51.434;6.788;2022-07-12T05:08:38;16.30;99.90
9103;DHT22;4587;51.434;6.788;2022-07-12T05:11:04;16.30;99.90
9103;DHT22;4587;51.434;6.788;2022-07-12T05:13:30;16.40;99.90
9103;DHT22;4587;51.434;6.788;2022-07-12T05:15:55;16.40;99.90
9103;DHT22;4587;51.434;6.788;2022-07-12T05:18:21;16.40;99.90
9103;DHT22;4587;51.434;6.788;2022-07-12T05:20:47;16.50;99.90
9103;DHT22;4587;51.434;6.788;2022-07-12T05:23:12;16.50;99.90
9103;DHT22;4587;51.434;6.788;2022-07-12T05:25:38;16.60;99.90
9103;DHT22;4587;51.434;6.788;2022-07-12T05:28:04;16.60;99.90
9103;DHT22;4587;51.434;6.788;2022-07-12T05:30:29;16.70;99.90
9103;DHT22;4587;51.434;6.788;2022-07-12T05:32:55;16.90;99.90
9103;DHT22;4587;51.434;6.788;2022-07-12T05:35:20;17.60;99.90
9103;DHT22;4587;51.434;6.788;2022-07-12T05:37:46;17.90;99.90
9103;DHT22;4587;51.434;6.788;2022-07-12T05:40:12;17.90;99.90
9103;DHT22;4587;51.434;6.788;2022-07-12T05:42:38;18.30;99.90
9103;DHT22;4587;51.434;6.788;2022-07-12T05:45:04;18.50;99.90
9103;DHT22;4587;51.434;6.788;2022-07-12T05:47:30;18.40;99.90
9103;DHT22;4587;51.434;6.788;2022-07-12T05:49:56;18.40;99.90
9103;DHT22;4587;51.434;6.788;2022-07-12T05:52:21;18.30;99.90
9103;DHT22;4587;51.434;6.788;2022-07-12T05:55:05;18.30;99.90
9103;DHT22;4587;51.434;6.788;2022-07-12T05:57:32;18.20;99.90
9103;DHT22;4587;51.434;6.788;2022-07-12T05:59:57;18.10;99.90
9103;DHT22;4587;51.434;6.788;2022-07-12T06:02:23;18.10;99.90
9103;DHT22;4587;51.434;6.788;2022-07-12T06:04:48;18.00;99.90
9103;DHT22;4587;51.434;6.788;2022-07-12T06:07:14;18.10;99.90
9103;DHT22;4587;51.434;6.788;2022-07-12T06:09:40;18.10;99.90
9103;DHT22;4587;51.434;6.788;2022-07-12T06:12:06;18.00;99.90
9103;DHT22;4587;51.434;6.788;2022-07-12T06:14:32;18.10;99.90
9103;DHT22;4587;51.434;6.788;2022-07-12T06:16:57;18.10;99.90
9103;DHT22;4587;51.434;6.788;2022-07-12T06:19:23;18.20;99.90
9103;DHT22;4587;51.434;6.788;2022-07-12T06:21:49;18.20;99.90
9103;DHT22;4587;51.434;6.788;2022-07-12T06:24:15;18.20;99.90
9103;DHT22;4587;51.434;6.788;2022-07-12T06:26:40;18.30;99.90
9103;DHT22;4587;51.434;6.788;2022-07-12T06:29:06;18.40;99.90
9103;DHT22;4587;51.434;6.788;2022-07-12T06:31:31;18.50;99.90
9103;DHT22;4587;51.434;6.788;2022-07-12T06:33:57;18.70;99.90
9103;DHT22;4587;51.434;6.788;2022-07-12T06:36:23;19.20;99.90
9103;DHT22;4587;51.434;6.788;2022-07-12T06:38:49;21.10;99.90
9103;DHT22;4587;51.434;6.788;2022-07-12T06:41:14;23.40;99.90
9103;DHT22;4587;51.434;6.788;2022-07-12T06:43:40;25.60;99.90
9103;DHT22;4587;51.434;6.788;2022-07-12T06:46:05;26.70;99.90
9103;DHT22;4587;51.434;6.788;2022-07-12T06:48:31;28.20;99.90
9103;DHT22;4587;51.434;6.788;2022-07-12T06:50:56;29.60;99.90
9103;DHT22;4587;51.434;6.788;2022-07-12T06:53:22;30.70;99.90
9103;DHT22;4587;51.434;6.788;2022-07-12T06:55:48;31.70;97.10
9103;DHT22;4587;51.434;6.788;2022-07-12T06:58:13;32.50;94.30
9103;DHT22;4587;51.434;6.788;2022-07-12T07:00:39;32.80;90.80
9103;DHT22;4587;51.434;6.788;2022-07-12T07:03:08;33.50;90.20
9103;DHT22;4587;51.434;6.788;2022-07-12T07:05:34;34.40;82.90
9103;DHT22;4587;51.434;6.788;2022-07-12T07:08:02;35.10;79.60
9103;DHT22;4587;51.434;6.788;2022-07-12T07:10:28;35.60;75.00
9103;DHT22;4587;51.434;6.788;2022-07-12T07:12:53;36.20;72.80
9103;DHT22;4587;51.434;6.788;2022-07-12T07:15:19;36.80;69.20
9103;DHT22;4587;51.434;6.788;2022-07-12T07:17:45;36.20;69.80
9103;DHT22;4587;51.434;6.788;2022-07-12T07:20:11;35.90;69.60
9103;DHT22;4587;51.434;6.788;2022-07-12T07:22:37;36.10;69.40
9103;DHT22;4587;51.434;6.788;2022-07-12T07:25:03;36.30;68.40
9103;DHT22;4587;51.434;6.788;2022-07-12T07:27:29;36.30;68.90
9103;DHT22;4587;51.434;6.788;2022-07-12T07:29:54;37.00;66.00
9103;DHT22;4587;51.434;6.788;2022-07-12T07:32:39;37.40;65.00
9103;DHT22;4587;51.434;6.788;2022-07-12T07:35:04;37.80;63.20
9103;DHT22;4587;51.434;6.788;2022-07-12T07:37:33;37.40;62.70
9103;DHT22;4587;51.434;6.788;2022-07-12T07:39:59;37.40;62.40
9103;DHT22;4587;51.434;6.788;2022-07-12T07:42:25;36.90;63.20
9103;DHT22;4587;51.434;6.788;2022-07-12T07:44:50;36.70;63.70
9103;DHT22;4587;51.434;6.788;2022-07-12T07:47:16;37.10;63.40
9103;DHT22;4587;51.434;6.788;2022-07-12T07:49:41;37.50;62.30
9103;DHT22;4587;51.434;6.788;2022-07-12T07:52:07;37.40;61.30
9103;DHT22;4587;51.434;6.788;2022-07-12T07:54:33;36.60;62.90
9103;DHT22;4587;51.434;6.788;2022-07-12T07:56:58;37.00;61.00
9103;DHT22;4587;51.434;6.788;2022-07-12T07:59:24;37.50;61.20
9103;DHT22;4587;51.434;6.788;2022-07-12T08:01:49;37.70;60.90
9103;DHT22;4587;51.434;6.788;2022-07-12T08:04:18;37.90;59.70
9103;DHT22;4587;51.434;6.788;2022-07-12T08:06:45;38.30;58.60
9103;DHT22;4587;51.434;6.788;2022-07-12T08:09:11;38.60;58.10
9103;DHT22;4587;51.434;6.788;2022-07-12T08:11:37;38.70;58.20
9103;DHT22;4587;51.434;6.788;2022-07-12T08:14:03;38.60;57.50
9103;DHT22;4587;51.434;6.788;2022-07-12T08:16:29;37.70;57.60
9103;DHT22;4587;51.434;6.788;2022-07-12T08:18:56;36.20;59.10
9103;DHT22;4587;51.434;6.788;2022-07-12T08:21:22;34.90;61.60
9103;DHT22;4587;51.434;6.788;2022-07-12T08:23:47;33.70;65.20
9103;DHT22;4587;51.434;6.788;2022-07-12T08:26:13;32.80;70.50
9103;DHT22;4587;51.434;6.788;2022-07-12T08:28:39;32.00;74.50
9103;DHT22;4587;51.434;6.788;2022-07-12T08:31:04;31.40;78.20
9103;DHT22;4587;51.434;6.788;2022-07-12T08:33:30;31.00;82.00
9103;DHT22;4587;51.434;6.788;2022-07-12T08:35:55;30.50;85.50
9103;DHT22;4587;51.434;6.788;2022-07-12T08:38:21;30.30;90.40
9103;DHT22;4587;51.434;6.788;2022-07-12T08:40:47;30.00;91.20
9103;DHT22;4587;51.434;6.788;2022-07-12T08:43:13;29.70;92.10
9103;DHT22;4587;51.434;6.788;2022-07-12T08:45:38;29.50;93.30
9103;DHT22;4587;51.434;6.788;2022-07-12T08:48:06;29.30;94.70
9103;DHT22;4587;51.434;6.788;2022-07-12T08:50:33;29.00;95.80
9103;DHT22;4587;51.434;6.788;2022-07-12T08:52:59;28.80;97.20
9103;DHT22;4587;51.434;6.788;2022-07-12T08:57:53;28.50;98.60
9103;DHT22;4587;51.434;6.788;2022-07-12T09:00:20;28.50;96.60
9103;DHT22;4587;51.434;6.788;2022-07-12T09:02:48;28.40;96.60
9103;DHT22;4587;51.434;6.788;2022-07-12T09:05:16;28.30;96.30
9103;DHT22;4587;51.434;6.788;2022-07-12T09:07:42;28.30;97.20
9103;DHT22;4587;51.434;6.788;2022-07-12T09:10:10;28.30;98.30
9103;DHT22;4587;51.434;6.788;2022-07-12T09:12:36;28.20;98.70
9103;DHT22;4587;51.434;6.788;2022-07-12T09:15:19;28.10;98.50
9103;DHT22;4587;51.434;6.788;2022-07-12T09:17:57;28.10;98.30
9103;DHT22;4587;51.434;6.788;2022-07-12T09:20:28;28.10;99.50
9103;DHT22;4587;51.434;6.788;2022-07-12T09:22:56;28.00;99.10
9103;DHT22;4587;51.434;6.788;2022-07-12T09:25:22;27.70;99.20
9103;DHT22;4587;51.434;6.788;2022-07-12T09:27:53;27.60;99.80
9103;DHT22;4587;51.434;6.788;2022-07-12T09:30:20;27.50;99.90
9103;DHT22;4587;51.434;6.788;2022-07-12T09:33:05;27.60;99.90
9103;DHT22;4587;51.434;6.788;2022-07-12T09:38:52;27.80;99.90
9103;DHT22;4587;51.434;6.788;2022-07-12T09:41:21;27.90;98.50
9103;DHT22;4587;51.434;6.788;2022-07-12T09:43:47;27.90;98.70
9103;DHT22;4587;51.434;6.788;2022-07-12T09:46:16;27.90;97.70
9103;DHT22;4587;51.434;6.788;2022-07-12T09:48:43;27.90;98.40
9103;DHT22;4587;51.434;6.788;2022-07-12T09:51:13;27.90;99.10
9103;DHT22;4587;51.434;6.788;2022-07-12T09:53:49;28.00;98.10
9103;DHT22;4587;51.434;6.788;2022-07-12T09:56:16;28.10;98.10
9103;DHT22;4587;51.434;6.788;2022-07-12T10:01:11;28.20;96.40
9103;DHT22;4587;51.434;6.788;2022-07-12T10:03:40;28.40;96.60
9103;DHT22;4587;51.434;6.788;2022-07-12T10:06:06;28.40;94.10
9103;DHT22;4587;51.434;6.788;2022-07-12T10:08:32;28.30;93.40
9103;DHT22;4587;51.434;6.788;2022-07-12T10:11:00;28.30;95.10
9103;DHT22;4587;51.434;6.788;2022-07-12T10:13:27;28.20;96.50
9103;DHT22;4587;51.434;6.788;2022-07-12T10:15:58;28.10;96.10
9103;DHT22;4587;51.434;6.788;2022-07-12T10:18:25;28.00;93.00
9103;DHT22;4587;51.434;6.788;2022-07-12T10:20:50;28.00;92.30
9103;DHT22;4587;51.434;6.788;2022-07-12T10:25:45;27.90;93.50
9103;DHT22;4587;51.434;6.788;2022-07-12T10:28:12;27.80;94.40
9103;DHT22;4587;51.434;6.788;2022-07-12T10:30:43;27.90;95.10
9103;DHT22;4587;51.434;6.788;2022-07-12T10:33:35;27.90;94.60
9103;DHT22;4587;51.434;6.788;2022-07-12T10:36:04;27.90;94.50
9103;DHT22;4587;51.434;6.788;2022-07-12T10:38:34;27.90;93.50
9103;DHT22;4587;51.434;6.788;2022-07-12T10:41:21;27.90;93.80
9103;DHT22;4587;51.434;6.788;2022-07-12T10:44:07;27.90;92.80
9103;DHT22;4587;51.434;6.788;2022-07-12T10:46:33;27.90;93.70
9103;DHT22;4587;51.434;6.788;2022-07-12T10:49:33;27.90;93.40
9103;DHT22;4587;51.434;6.788;2022-07-12T11:00:06;27.90;90.40
9103;DHT22;4587;51.434;6.788;2022-07-12T11:02:34;27.90;90.60
9103;DHT22;4587;51.434;6.788;2022-07-12T11:05:00;28.00;91.40
9103;DHT22;4587;51.434;6.788;2022-07-12T11:07:28;28.00;92.10
9103;DHT22;4587;51.434;6.788;2022-07-12T11:09:54;28.10;91.20
9103;DHT22;4587;51.434;6.788;2022-07-12T11:12:27;28.00;91.20
9103;DHT22;4587;51.434;6.788;2022-07-12T11:14:53;27.90;92.10
9103;DHT22;4587;51.434;6.788;2022-07-12T11:17:29;28.00;93.20
9103;DHT22;4587;51.434;6.788;2022-07-12T11:20:12;28.10;91.60
9103;DHT22;4587;51.434;6.788;2022-07-12T11:22:40;28.10;90.40
9103;DHT22;4587;51.434;6.788;2022-07-12T11:25:10;28.10;91.00
9103;DHT22;4587;51.434;6.788;2022-07-12T11:27:36;28.20;90.90
9103;DHT22;4587;51.434;6.788;2022-07-12T11:30:04;28.20;91.00
9103;DHT22;4587;51.434;6.788;2022-07-12T11:32:38;28.20;91.80
9103;DHT22;4587;51.434;6.788;2022-07-12T11:35:17;28.30;89.60
9103;DHT22;4587;51.434;6.788;2022-07-12T11:37:54;28.20;87.10
9103;DHT22;4587;51.434;6.788;2022-07-12T11:40:24;28.10;89.50
9103;DHT22;4587;51.434;6.788;2022-07-12T11:42:54;28.20;90.80
9103;DHT22;4587;51.434;6.788;2022-07-12T11:45:20;28.20;91.30
9103;DHT22;4587;51.434;6.788;2022-07-12T11:47:46;28.20;90.90
9103;DHT22;4587;51.434;6.788;2022-07-12T11:50:17;28.20;91.00
9103;DHT22;4587;51.434;6.788;2022-07-12T11:52:43;28.20;91.10
9103;DHT22;4587;51.434;6.788;2022-07-12T11:55:08;28.20;90.50
9103;DHT22;4587;51.434;6.788;2022-07-12T11:57:34;28.20;91.30
9103;DHT22;4587;51.434;6.788;2022-07-12T12:00:14;28.30;91.20
9103;DHT22;4587;51.434;6.788;2022-07-12T12:02:39;28.50;88.90
9103;DHT22;4587;51.434;6.788;2022-07-12T12:05:05;28.50;88.60
9103;DHT22;4587;51.434;6.788;2022-07-12T12:07:32;28.40;87.60
9103;DHT22;4587;51.434;6.788;2022-07-12T12:10:11;28.40;88.80
9103;DHT22;4587;51.434;6.788;2022-07-12T12:12:46;28.50;90.40
9103;DHT22;4587;51.434;6.788;2022-07-12T12:15:17;28.70;88.20
9103;DHT22;4587;51.434;6.788;2022-07-12T12:22:53;28.80;85.60
9103;DHT22;4587;51.434;6.788;2022-07-12T12:25:19;28.80;85.90
9103;DHT22;4587;51.434;6.788;2022-07-12T12:27:59;28.90;86.60
9103;DHT22;4587;51.434;6.788;2022-07-12T12:30:26;28.80;83.90
9103;DHT22;4587;51.434;6.788;2022-07-12T12:32:56;28.90;85.60
9103;DHT22;4587;51.434;6.788;2022-07-12T12:35:29;29.00;86.90
9103;DHT22;4587;51.434;6.788;2022-07-12T12:38:03;29.10;86.80
9103;DHT22;4587;51.434;6.788;2022-07-12T12:40:32;29.10;85.00
9103;DHT22;4587;51.434;6.788;2022-07-12T12:43:12;29.10;84.70
9103;DHT22;4587;51.434;6.788;2022-07-12T12:45:52;29.20;85.30
9103;DHT22;4587;51.434;6.788;2022-07-12T12:48:26;29.20;84.80
9103;DHT22;4587;51.434;6.788;2022-07-12T12:51:12;29.10;84.80
9103;DHT22;4587;51.434;6.788;2022-07-12T12:53:39;29.00;84.20
9103;DHT22;4587;51.434;6.788;2022-07-12T12:56:07;29.00;85.30
9103;DHT22;4587;51.434;6.788;2022-07-12T12:58:34;29.00;85.60
9103;DHT22;4587;51.434;6.788;2022-07-12T13:01:00;29.00;86.70
9103;DHT22;4587;51.434;6.788;2022-07-12T13:03:25;29.10;86.20
9103;DHT22;4587;51.434;6.788;2022-07-12T13:05:51;29.10;86.80
9103;DHT22;4587;51.434;6.788;2022-07-12T13:08:17;29.10;86.80
9103;DHT22;4587;51.434;6.788;2022-07-12T13:10:45;29.10;82.50
9103;DHT22;4587;51.434;6.788;2022-07-12T13:13:11;29.20;82.90
9103;DHT22;4587;51.434;6.788;2022-07-12T13:15:38;29.10;82.60
9103;DHT22;4587;51.434;6.788;2022-07-12T13:18:05;29.00;81.70
9103;DHT22;4587;51.434;6.788;2022-07-12T13:20:31;29.00;83.00
9103;DHT22;4587;51.434;6.788;2022-07-12T13:22:57;29.00;83.20
9103;DHT22;4587;51.434;6.788;2022-07-12T13:25:24;29.00;83.50
9103;DHT22;4587;51.434;6.788;2022-07-12T13:27:51;29.00;82.30
9103;DHT22;4587;51.434;6.788;2022-07-12T13:30:18;29.10;81.60
9103;DHT22;4587;51.434;6.788;2022-07-12T13:32:45;29.20;80.30
9103;DHT22;4587;51.434;6.788;2022-07-12T13:35:11;29.20;76.40
9103;DHT22;4587;51.434;6.788;2022-07-12T13:37:39;29.20;77.80
9103;DHT22;4587;51.434;6.788;2022-07-12T13:40:05;29.20;78.20
9103;DHT22;4587;51.434;6.788;2022-07-12T13:42:44;29.20;77.60
9103;DHT22;4587;51.434;6.788;2022-07-12T13:45:12;29.30;76.40
9103;DHT22;4587;51.434;6.788;2022-07-12T13:47:38;29.20;75.30
9103;DHT22;4587;51.434;6.788;2022-07-12T13:50:08;29.20;74.80
9103;DHT22;4587;51.434;6.788;2022-07-12T13:52:34;29.20;76.40
9103;DHT22;4587;51.434;6.788;2022-07-12T13:55:00;29.30;75.50
9103;DHT22;4587;51.434;6.788;2022-07-12T13:57:26;29.20;73.40
9103;DHT22;4587;51.434;6.788;2022-07-12T13:59:51;29.30;74.20
9103;DHT22;4587;51.434;6.788;2022-07-12T14:02:18;29.30;72.90
9103;DHT22;4587;51.434;6.788;2022-07-12T14:04:43;29.40;73.60
9103;DHT22;4587;51.434;6.788;2022-07-12T14:07:10;29.40;74.40
9103;DHT22;4587;51.434;6.788;2022-07-12T14:09:35;29.40;73.40
9103;DHT22;4587;51.434;6.788;2022-07-12T14:12:01;29.40;73.20
9103;DHT22;4587;51.434;6.788;2022-07-12T14:14:28;29.40;73.50
9103;DHT22;4587;51.434;6.788;2022-07-12T14:17:13;29.40;71.80
9103;DHT22;4587;51.434;6.788;2022-07-12T14:19:39;29.40;71.50
9103;DHT22;4587;51.434;6.788;2022-07-12T14:22:04;29.50;72.50
9103;DHT22;4587;51.434;6.788;2022-07-12T14:24:30;29.50;72.60
9103;DHT22;4587;51.434;6.788;2022-07-12T14:26:55;29.40;73.90
9103;DHT22;4587;51.434;6.788;2022-07-12T14:29:21;29.30;75.30
9103;DHT22;4587;51.434;6.788;2022-07-12T14:31:47;29.30;77.10
9103;DHT22;4587;51.434;6.788;2022-07-12T14:34:12;29.20;77.70
9103;DHT22;4587;51.434;6.788;2022-07-12T14:36:38;29.20;79.00
9103;DHT22;4587;51.434;6.788;2022-07-12T14:39:04;29.20;80.50
9103;DHT22;4587;51.434;6.788;2022-07-12T14:41:29;29.20;80.70
9103;DHT22;4587;51.434;6.788;2022-07-12T14:43:55;29.10;81.20
9103;DHT22;4587;51.434;6.788;2022-07-12T14:46:22;29.10;80.60
9103;DHT22;4587;51.434;6.788;2022-07-12T14:48:47;29.10;79.70
9103;DHT22;4587;51.434;6.788;2022-07-12T14:51:13;29.10;80.40
9103;DHT22;4587;51.434;6.788;2022-07-12T14:53:38;29.20;81.30
9103;DHT22;4587;51.434;6.788;2022-07-12T14:56:04;29.30;80.60
9103;DHT22;4587;51.434;6.788;2022-07-12T14:58:30;29.40;79.50
9103;DHT22;4587;51.434;6.788;2022-07-12T15:00:57;29.60;79.50
9103;DHT22;4587;51.434;6.788;2022-07-12T15:03:23;29.80;76.90
9103;DHT22;4587;51.434;6.788;2022-07-12T15:05:49;29.90;76.90
9103;DHT22;4587;51.434;6.788;2022-07-12T15:08:14;30.00;75.20
9103;DHT22;4587;51.434;6.788;2022-07-12T15:10:40;30.10;73.60
9103;DHT22;4587;51.434;6.788;2022-07-12T15:13:05;30.20;73.50
9103;DHT22;4587;51.434;6.788;2022-07-12T15:15:32;30.20;73.60
9103;DHT22;4587;51.434;6.788;2022-07-12T15:17:58;30.30;73.70
9103;DHT22;4587;51.434;6.788;2022-07-12T15:20:23;30.30;73.80
9103;DHT22;4587;51.434;6.788;2022-07-12T15:22:49;30.30;72.00
9103;DHT22;4587;51.434;6.788;2022-07-12T15:25:15;30.30;71.90
9103;DHT22;4587;51.434;6.788;2022-07-12T15:27:40;30.30;71.80
9103;DHT22;4587;51.434;6.788;2022-07-12T15:30:07;30.20;71.90
9103;DHT22;4587;51.434;6.788;2022-07-12T15:32:33;30.30;73.40
9103;DHT22;4587;51.434;6.788;2022-07-12T15:34:58;30.30;73.10
9103;DHT22;4587;51.434;6.788;2022-07-12T15:37:24;30.20;71.80
9103;DHT22;4587;51.434;6.788;2022-07-12T15:39:49;30.10;71.80
9103;DHT22;4587;51.434;6.788;2022-07-12T15:42:15;30.00;71.60
9103;DHT22;4587;51.434;6.788;2022-07-12T15:44:41;29.90;70.90
9103;DHT22;4587;51.434;6.788;2022-07-12T15:47:08;29.80;70.40
9103;DHT22;4587;51.434;6.788;2022-07-12T15:49:38;29.80;70.60
9103;DHT22;4587;51.434;6.788;2022-07-12T15:52:04;29.80;71.20
9103;DHT22;4587;51.434;6.788;2022-07-12T15:54:48;29.80;71.30
9103;DHT22;4587;51.434;6.788;2022-07-12T15:57:14;29.90;71.60
9103;DHT22;4587;51.434;6.788;2022-07-12T15:59:41;30.00;71.50
9103;DHT22;4587;51.434;6.788;2022-07-12T16:02:07;30.10;71.80
9103;DHT22;4587;51.434;6.788;2022-07-12T16:04:37;30.20;71.80
9103;DHT22;4587;51.434;6.788;2022-07-12T16:07:03;30.30;72.00
9103;DHT22;4587;51.434;6.788;2022-07-12T16:09:29;30.20;70.50
9103;DHT22;4587;51.434;6.788;2022-07-12T16:11:55;30.20;70.60
9103;DHT22;4587;51.434;6.788;2022-07-12T16:14:21;30.20;70.80
9103;DHT22;4587;51.434;6.788;2022-07-12T16:16:47;30.10;71.10
9103;DHT22;4587;51.434;6.788;2022-07-12T16:19:13;30.00;71.30
9103;DHT22;4587;51.434;6.788;2022-07-12T16:21:38;29.90;71.20
9103;DHT22;4587;51.434;6.788;2022-07-12T16:24:04;29.70;71.50
9103;DHT22;4587;51.434;6.788;2022-07-12T16:26:31;29.60;72.80